Flight APNVIP2X

  • Submitted By: Krzysztof H. Blaszkow
  • Departure Airport: Ireland West Airport Knock (EIKN)
  • Arrival Airport: Dublin (EIDW)
  • Aircraft: BE58 (EJ-IAWH)
  • Flight Time: 01.07.37
  • Date Submitted: 03/04/2017
  • Status: Accepted
Flight Details
Gross Revenue:
(5 load / € 4,000.00 per unit
€ 20,000.00
Fuel Cost:
(57.6062 fuel used @ 0.45 / unit)
€ 25.92

Additional Log Information:

View Log

[19:01] - Carenado BARON B58 GOLD GREEN
[19:01] - Flight APNVIP2X is ready to depart EIKN with a final destination of EIDW.
[19:01] - Parking Brake Applied
[19:01] - Beacon Light ON
[19:01] - Instrument Lights ON
[19:01] - Wing Lights ON
[19:01] - Boarding
[19:01] - ADF1 - 284.0
[19:01] - ADF2 - 240.0
[19:01] - NAV1 - 117.40
[19:01] - NAV2 - 110.60
[19:01] - COM1 - 122.80
[19:01] - COM2 - 127.80
[19:01] - Transponder - 2000
[19:02] - Engine 1 Started
[19:02] - Engine 2 Started
[19:04] - Parking Brake Released
[19:04] - Taxi Lights ON 3AGL
[19:05] - Taxiing to Runway
[19:05] - Landing Lights ON 3AGL
[19:05] - Strobe Lights ON 3AGL
[19:06] - Taking Off with 5 passengers on board
[19:07] - Take off at 103kts, with a pitch of 4deg and 304lbs of fuel on board
[19:07] - Wind Heading 280 | Wind Speed 10kts | Temperature 6 deg C
[19:07] - METAR Departure: EIKN 041830Z 29008KT 9999 FEW020CB BKN032 BKN120 04/03 Q0985 NOSIG

[19:07] - Taxi Lights OFF 115AGL
[19:07] - Gear up at 141AGL
[19:07] - Climbing to TOC
[19:10] - AutoPilot Engaged at 4987AGL
[19:14] - Landing Lights OFF 8533AGL
[19:19] - TOC reached
[19:19] - Cruise started
[19:21] - NAV1 - 114.90
[19:31] - COM1 - 121.10
[19:41] - TOD reached
[19:41] - Descending to destination
[19:46] - Landing Lights ON 8865AGL
[19:49] - NAV1 - 111.35
[19:50] - Landing Shortly
[19:54] - COM1 - 118.60
[19:55] - AutoPilot Disengaged at 2287AGL
[19:57] - Gear down at 981AGL
[19:57] - Flaps to position 1 at 1073ft and 153kts
[19:58] - Landed at -305fpm. With 182lbs of fuel onboard and a pitch angle of 1deg.
[19:58] - Wind Heading 258 | Wind Speed 12kts | Temperature 6 deg C
[19:58] - METAR Arrival: EIDW 041930Z 27012KT 9999 BKN010 BKN014 05/04 Q0985 NOSIG

[19:58] - Flaps to position 0
[19:59] - Taxiing to Gate
[20:00] - Landing Lights OFF 3AGL
[20:00] - Taxi Lights ON 3AGL
[20:00] - Strobe Lights OFF 3AGL
[20:06] - Parking Brake Applied
[20:06] - Arrived safely at EIDW. We hope you enjoyed your flight!
[20:07] - Engine 1 Stopped
[20:07] - Engine 2 Stopped
[20:08] - Taxi Lights OFF 3AGL
[20:10] - Carenado BARON B58 GOLD GREEN
[20:10] - MaxSim Rate: 1x
[20:10] - SiouxAcars ver: 1.0.1.2

Comments

Commenter Comment
Krzysztof H. Blaszkow saitek wariuje, tak czuly na baronie ze nie da rady, loteria,
Krzysztof H. Blaszkow elegancko speed nad TH i dalej d** lekko pociagne to sie zrywa do gory, jednym palcem pomalutku.. a i tak jak w minectraft, rozbije lub zbuduje hehe

Route Map